createdAt,value
2023-05-11T00:01:59.537Z,11.79
2023-05-11T00:07:00.444Z,11.71
2023-05-11T00:12:01.700Z,11.57
2023-05-11T00:17:03.718Z,11.52
2023-05-11T00:22:04.641Z,11.38
2023-05-11T00:27:06.098Z,11.36
2023-05-11T00:32:08.128Z,11.33
2023-05-11T00:37:08.764Z,11.19
2023-05-11T00:42:09.578Z,11.23
2023-05-11T00:47:11.685Z,11.20
2023-05-11T00:52:12.788Z,11.18
2023-05-11T00:57:13.595Z,11.07
2023-05-11T01:02:15.790Z,11.03
2023-05-11T01:07:22.360Z,10.90
2023-05-11T01:12:31.149Z,10.94
2023-05-11T01:17:44.152Z,10.90
2023-05-11T01:23:20.658Z,10.80
2023-05-11T01:28:43.720Z,10.74
2023-05-11T01:33:54.990Z,10.72
2023-05-11T01:38:59.667Z,10.60
2023-05-11T01:44:04.494Z,10.53
2023-05-11T01:49:07.866Z,10.42
2023-05-11T01:54:10.147Z,10.45
2023-05-11T01:59:14.317Z,10.45
2023-05-11T02:04:19.885Z,10.44
2023-05-11T02:09:24.103Z,10.35
2023-05-11T02:14:26.592Z,10.24
2023-05-11T02:19:30.395Z,10.23
2023-05-11T02:24:32.265Z,10.22
2023-05-11T02:29:33.458Z,10.15
2023-05-11T02:34:41.638Z,10.12
2023-05-11T02:39:47.019Z,10.02
2023-05-11T02:44:55.830Z,10.00
2023-05-11T02:50:02.443Z,9.88
2023-05-11T02:55:07.290Z,9.89
2023-05-11T03:00:11.649Z,9.99
2023-05-11T03:05:13.920Z,9.94
2023-05-11T03:10:15.617Z,9.88
2023-05-11T03:15:20.225Z,9.87
2023-05-11T03:20:25.045Z,9.90
2023-05-11T03:25:26.089Z,9.94
2023-05-11T03:30:29.098Z,9.95
2023-05-11T03:35:35.843Z,9.99
2023-05-11T03:40:39.858Z,10.11
2023-05-11T03:45:43.894Z,10.22
2023-05-11T03:50:46.285Z,10.30
2023-05-11T03:55:47.243Z,10.42
2023-05-11T04:00:48.184Z,10.58
2023-05-11T04:05:50.168Z,10.74
2023-05-11T04:10:50.886Z,11.25
2023-05-11T04:15:54.244Z,11.44
2023-05-11T04:20:56.675Z,11.64
2023-05-11T04:25:57.831Z,11.81
2023-05-11T04:30:58.762Z,11.79
2023-05-11T04:36:01.377Z,11.88
2023-05-11T04:41:04.764Z,11.88
2023-05-11T04:46:05.685Z,12.05
2023-05-11T04:51:08.158Z,12.16
2023-05-11T04:56:14.145Z,12.41
2023-05-11T05:01:16.026Z,12.64
2023-05-11T05:06:18.182Z,12.86
2023-05-11T05:11:18.884Z,13.10
2023-05-11T05:16:19.698Z,13.18
2023-05-11T05:21:21.736Z,13.39
2023-05-11T05:26:23.118Z,13.61
2023-05-11T05:31:25.473Z,13.73
2023-05-11T05:36:28.245Z,13.96
2023-05-11T05:41:29.034Z,14.26
2023-05-11T05:46:31.236Z,14.63
2023-05-11T05:51:33.733Z,15.15
2023-05-11T05:56:35.179Z,15.19
2023-05-11T06:01:36.647Z,15.55
2023-05-11T06:06:39.184Z,15.91
2023-05-11T06:11:40.185Z,15.92
2023-05-11T06:16:41.337Z,16.04
2023-05-11T06:21:45.283Z,16.25
2023-05-11T06:26:47.547Z,16.23
2023-05-11T06:31:52.856Z,16.30
2023-05-11T06:36:55.395Z,16.61
2023-05-11T06:41:57.489Z,16.76
2023-05-11T06:47:02.536Z,16.85
2023-05-11T06:52:04.885Z,16.84
2023-05-11T06:57:05.518Z,16.94
2023-05-11T07:02:06.193Z,17.04
2023-05-11T07:07:08.994Z,17.26
2023-05-11T07:12:09.641Z,17.13
2023-05-11T07:17:10.381Z,17.10
2023-05-11T07:22:14.904Z,17.43
2023-05-11T07:27:16.082Z,17.40
2023-05-11T07:32:16.733Z,17.75
2023-05-11T07:37:18.730Z,17.55
2023-05-11T07:42:19.386Z,17.61
2023-05-11T07:47:20.980Z,17.93
2023-05-11T07:52:23.072Z,18.10
2023-05-11T07:57:23.751Z,18.18
2023-05-11T08:02:24.619Z,18.23
2023-05-11T08:07:26.849Z,18.23
2023-05-11T08:12:27.595Z,18.29
2023-05-11T08:17:28.396Z,18.50
2023-05-11T08:22:30.915Z,18.63
2023-05-11T08:27:31.595Z,18.76
2023-05-11T08:32:36.217Z,18.74
2023-05-11T08:37:45.605Z,18.84
2023-05-11T08:42:49.189Z,19.17
2023-05-11T08:47:50.831Z,19.17
2023-05-11T08:52:52.977Z,19.40
2023-05-11T08:57:54.864Z,19.49
2023-05-11T09:02:56.378Z,19.46
2023-05-11T09:08:02.128Z,19.25
2023-05-11T09:13:02.850Z,19.53
2023-05-11T09:18:05.702Z,19.65
2023-05-11T09:23:08.458Z,19.84
2023-05-11T09:28:15.916Z,20.13
2023-05-11T09:33:24.586Z,20.31
2023-05-11T09:38:26.835Z,20.52
2023-05-11T09:43:28.985Z,20.63
2023-05-11T09:48:31.842Z,20.77
2023-05-11T09:53:40.836Z,21.01
2023-05-11T09:58:49.749Z,21.03
2023-05-11T10:03:58.160Z,21.16
2023-05-11T10:09:11.566Z,21.12
2023-05-11T10:14:13.773Z,21.04
2023-05-11T10:19:14.649Z,21.07
2023-05-11T10:24:19.693Z,21.54
2023-05-11T10:29:22.617Z,21.45
2023-05-11T10:34:24.564Z,21.65
2023-05-11T10:39:26.971Z,21.57
2023-05-11T10:44:51.985Z,21.70
2023-05-11T10:50:13.347Z,21.91
2023-05-11T10:55:28.689Z,22.14
2023-05-11T11:01:21.887Z,22.40
2023-05-11T11:06:24.123Z,22.21
2023-05-11T11:11:37.097Z,22.31
2023-05-11T11:16:38.936Z,22.52
2023-05-11T11:21:44.193Z,22.05
2023-05-11T11:26:50.615Z,22.33
2023-05-11T11:31:51.422Z,22.44
2023-05-11T11:37:09.653Z,23.07
2023-05-11T11:42:13.291Z,23.21
2023-05-11T11:47:16.300Z,23.07
2023-05-11T11:52:34.579Z,22.69
2023-05-11T11:57:51.090Z,22.21
2023-05-11T12:02:52.543Z,22.02
2023-05-11T12:07:54.211Z,22.22
2023-05-11T12:13:00.003Z,21.96
2023-05-11T12:18:02.848Z,22.39
2023-05-11T12:23:03.721Z,22.54
2023-05-11T12:28:05.980Z,22.21
2023-05-11T12:33:10.206Z,22.06
2023-05-11T12:38:12.440Z,22.41
2023-05-11T12:43:18.438Z,22.28
2023-05-11T12:48:19.315Z,21.80
2023-05-11T12:53:21.078Z,21.32
2023-05-11T12:58:23.210Z,20.62
2023-05-11T13:03:24.769Z,20.99
2023-05-11T13:08:25.522Z,20.98
2023-05-11T13:13:30.807Z,21.00
2023-05-11T13:18:31.531Z,21.07
2023-05-11T13:23:32.374Z,21.41
2023-05-11T13:28:35.000Z,21.70
2023-05-11T13:33:35.837Z,22.22
2023-05-11T13:38:36.522Z,23.21
2023-05-11T13:43:38.605Z,23.44
2023-05-11T13:48:39.221Z,23.68
2023-05-11T13:53:39.860Z,23.61
2023-05-11T13:58:44.895Z,23.82
2023-05-11T14:03:45.687Z,24.21
2023-05-11T14:08:46.358Z,24.29
2023-05-11T14:13:48.678Z,24.92
2023-05-11T14:18:50.568Z,24.74
2023-05-11T14:24:09.848Z,24.39
2023-05-11T14:29:13.172Z,24.32
2023-05-11T14:34:14.492Z,24.96
2023-05-11T14:39:15.207Z,24.75
2023-05-11T14:44:17.309Z,24.70
2023-05-11T14:49:18.093Z,24.95
2023-05-11T14:54:18.750Z,24.75
2023-05-11T14:59:20.904Z,24.65
2023-05-11T15:04:22.371Z,24.47
2023-05-11T15:09:24.052Z,24.10
2023-05-11T15:14:26.680Z,23.58
2023-05-11T15:19:27.345Z,23.55
2023-05-11T15:24:28.015Z,24.14
2023-05-11T15:29:30.120Z,24.16
2023-05-11T15:34:30.800Z,23.74
2023-05-11T15:39:31.500Z,23.32
2023-05-11T15:44:33.758Z,23.46
2023-05-11T15:49:34.462Z,24.15
2023-05-11T15:54:36.102Z,23.89
2023-05-11T15:59:38.500Z,23.40
2023-05-11T16:04:39.220Z,23.23
2023-05-11T16:09:39.953Z,23.12
2023-05-11T16:14:42.013Z,23.06
2023-05-11T16:19:42.683Z,23.37
2023-05-11T16:24:43.374Z,23.26
2023-05-11T16:29:45.722Z,22.78
2023-05-11T16:34:46.460Z,22.82
2023-05-11T16:39:47.173Z,22.50
2023-05-11T16:44:49.194Z,22.23
2023-05-11T16:49:49.989Z,22.23
2023-05-11T16:54:50.704Z,22.72
2023-05-11T16:59:52.833Z,22.23
2023-05-11T17:04:53.511Z,21.58
2023-05-11T17:09:57.056Z,21.04
2023-05-11T17:14:59.988Z,20.71
2023-05-11T17:20:01.299Z,20.38
2023-05-11T17:25:03.527Z,20.22
2023-05-11T17:30:06.762Z,20.10
2023-05-11T17:35:09.240Z,19.98
2023-05-11T17:40:10.719Z,19.87
2023-05-11T17:45:13.989Z,19.79
2023-05-11T17:50:14.680Z,19.67
2023-05-11T17:55:15.338Z,19.53
2023-05-11T18:00:18.144Z,19.40
2023-05-11T18:05:18.972Z,19.25
2023-05-11T18:10:19.748Z,19.20
2023-05-11T18:15:22.013Z,18.99
2023-05-11T18:20:22.765Z,18.93
2023-05-11T18:25:23.728Z,18.70
2023-05-11T18:30:25.975Z,18.51
2023-05-11T18:35:26.972Z,18.43
2023-05-11T18:40:27.766Z,18.22
2023-05-11T18:45:30.729Z,18.15
2023-05-11T18:50:31.582Z,17.97
2023-05-11T18:55:41.008Z,17.91
2023-05-11T19:00:52.499Z,17.77
2023-05-11T19:05:53.301Z,17.71
2023-05-11T19:10:54.039Z,17.61
2023-05-11T19:15:56.073Z,17.55
2023-05-11T19:20:56.731Z,17.54
2023-05-11T19:25:57.392Z,17.41
2023-05-11T19:31:03.403Z,17.47
2023-05-11T19:36:04.540Z,17.38
2023-05-11T19:41:05.352Z,17.27
2023-05-11T19:46:07.939Z,17.16
2023-05-11T19:51:08.694Z,17.07
2023-05-11T19:56:09.364Z,16.99
2023-05-11T20:01:11.465Z,16.99
2023-05-11T20:06:12.371Z,16.95
2023-05-11T20:11:13.042Z,16.93
2023-05-11T20:16:15.298Z,16.81
2023-05-11T20:21:16.684Z,16.75
2023-05-11T20:26:17.878Z,16.69
2023-05-11T20:31:21.538Z,16.65
2023-05-11T20:36:22.305Z,16.61
2023-05-11T20:41:23.254Z,16.62
2023-05-11T20:46:25.439Z,16.60
2023-05-11T20:51:26.221Z,16.54
2023-05-11T20:56:27.090Z,16.48
2023-05-11T21:01:31.193Z,16.44
2023-05-11T21:06:32.805Z,16.40
2023-05-11T21:11:33.499Z,16.30
2023-05-11T21:16:35.702Z,16.30
2023-05-11T21:21:36.777Z,16.19
2023-05-11T21:26:37.692Z,16.18
2023-05-11T21:31:39.857Z,16.13
2023-05-11T21:36:41.463Z,16.12
2023-05-11T21:41:42.443Z,16.03
2023-05-11T21:46:44.542Z,16.03
2023-05-11T21:51:45.227Z,16.00
2023-05-11T21:56:45.866Z,15.94
2023-05-11T22:01:49.203Z,15.80
2023-05-11T22:06:49.918Z,15.64
2023-05-11T22:11:50.563Z,15.68
2023-05-11T22:16:52.553Z,15.62
2023-05-11T22:21:53.444Z,15.55
2023-05-11T22:26:54.412Z,15.60
2023-05-11T22:31:56.476Z,15.53
2023-05-11T22:36:57.225Z,15.56
2023-05-11T22:41:58.175Z,15.49
2023-05-11T22:47:00.194Z,15.33
2023-05-11T22:52:00.850Z,15.30
2023-05-11T22:57:03.459Z,15.35
2023-05-11T23:02:05.752Z,15.19
2023-05-11T23:07:07.825Z,15.26
2023-05-11T23:12:09.217Z,15.38
2023-05-11T23:17:11.239Z,15.38
2023-05-11T23:22:11.959Z,15.32
2023-05-11T23:27:12.581Z,15.19
2023-05-11T23:32:15.244Z,15.09
2023-05-11T23:37:16.856Z,15.03
2023-05-11T23:42:17.561Z,14.91
2023-05-11T23:47:19.735Z,14.97
2023-05-11T23:52:20.411Z,14.82
2023-05-11T23:57:21.048Z,14.94
